Latest Weather Observations for Campbelltown

IDN60901

Issued at 8:21 pm EDT Tuesday 11 December 2018 (issued every 10 minutes, with the page automatically refreshed every 10 minutes)

About weather observations | Map of Sydney area stations | Latest observations for Sydney area | Other Formats
Station Details ID: 068257 Name: CAMPBELLTOWN (MOUNT ANNAN) Lat: -34.06 Lon: 150.77 Height: 112.0 m
Data from the previous 72 hours. | See also: Recent months at Campbelltown
Date/Time
EDT
Temp
°C
App
Temp
°C
Dew
Point
°C
Rel
Hum
%
Delta-T
°C
Wind Press
QNH
hPa
Press
MSL
hPa
Rain since
9am
mm
Dir  Spd
km/h
Gust
km/h
Spd
kts
Gust
kts
11/08:00pm 19.5 19.0 13.7 69 3.3 SSE 9 15 5 8 - - 0.0
11/07:30pm 19.9 19.9 13.6 67 3.6 SE 6 11 3 6 - - 0.0
11/07:00pm 20.1 19.8 13.3 65 3.9 SE 7 11 4 6 - - 0.0
11/06:30pm 20.2 19.4 12.9 63 4.2 SE 9 13 5 7 - - 0.0
11/06:00pm 20.5 19.2 11.4 56 5.0 E 9 15 5 8 - - 0.0
11/05:30pm 20.8 19.2 10.3 51 5.7 E 9 17 5 9 - - 0.0
11/05:00pm 21.1 19.9 11.7 55 5.3 E 9 17 5 9 - - 0.0
11/04:30pm 21.5 20.2 12.4 56 5.2 E 11 17 6 9 - - 0.0
11/04:00pm 21.2 19.9 12.6 58 4.9 E 11 17 6 9 - - 0.0
11/03:30pm 21.6 20.3 12.5 56 5.2 E 11 20 6 11 - - 0.0
11/03:00pm 21.9 20.6 12.5 55 5.4 E 11 20 6 11 - - 0.0
11/02:30pm 22.2 21.1 11.9 52 5.8 E 9 13 5 7 - - 0.0
11/02:00pm 22.7 21.1 11.4 49 6.3 ESE 11 19 6 10 - - 0.0
11/01:30pm 22.6 20.7 10.4 46 6.7 E 11 17 6 9 - - 0.0
11/01:00pm 22.7 20.2 9.8 44 7.0 E 13 19 7 10 - - 0.0
11/12:30pm 23.0 21.3 11.1 47 6.7 ENE 11 15 6 8 - - 0.0
11/12:00pm 24.2 23.2 12.2 47 6.9 E 9 15 5 8 - - 0.0
11/11:30am 23.5 22.6 11.2 46 6.9 SE 7 13 4 7 - - 0.0
11/11:00am 24.0 23.5 12.6 49 6.6 ESE 7 13 4 7 - - 0.0
11/10:30am 23.3 22.7 12.3 50 6.3 S 7 13 4 7 - - 0.0
11/10:00am 22.7 22.5 13.5 56 5.4 SE 7 17 4 9 - - 0.0
11/09:30am 22.0 21.8 13.6 59 4.9 E 7 13 4 7 - - 0.0
11/09:00am 21.3 21.6 14.5 65 4.0 SE 6 13 3 7 - - 0.0
11/08:30am 20.5 20.8 14.4 68 3.6 SSE 6 9 3 5 - - 0.0
11/08:00am 20.2 20.2 15.2 73 3.0 SSE 9 15 5 8 - - 0.0
11/07:30am 19.6 20.3 15.5 77 2.4 S 6 9 3 5 - - 0.0
11/07:00am 19.2 19.8 15.3 78 2.3 SSE 6 9 3 5 - - 0.0
11/06:30am 18.8 20.2 15.5 81 2.0 S 2 9 1 5 - - 0.0
11/06:00am 18.5 20.0 15.6 83 1.7 S 2 7 1 4 - - 0.0
11/05:30am 18.3 20.1 15.6 84 1.6 CALM 0 0 0 0 - - 0.0
11/05:00am 18.2 20.0 15.6 85 1.5 CALM 0 0 0 0 - - 0.0
11/04:30am 18.2 19.6 15.5 84 1.6 S 2 6 1 3 - - 0.0
11/04:00am 18.4 19.1 15.5 83 1.7 SSE 6 7 3 4 - - 0.0
11/03:30am 18.5 20.4 15.7 84 1.7 CALM 0 0 0 0 - - 0.0
11/03:00am 18.4 20.3 15.8 85 1.5 CALM 0 0 0 0 - - 0.0
11/02:30am 17.9 19.7 15.5 86 1.4 CALM 0 0 0 0 - - 0.0
11/02:00am 18.0 19.7 15.1 83 1.7 CALM 0 0 0 0 - - 0.0
11/01:30am 18.9 20.8 15.8 82 1.8 CALM 0 0 0 0 - - 0.0
11/01:00am 19.0 19.7 15.5 80 2.1 SSW 6 9 3 5 - - 0.0
11/12:30am 19.1 19.9 15.8 81 2.0 SSW 6 9 3 5 - - 0.0
11/12:00am 19.4 20.8 15.5 78 2.3 SSW 2 9 1 5 - - 0.0
 
Date/Time
EDT
Temp
°C
App
Temp
°C
Dew
Point
°C
Rel
Hum
%
Delta-T
°C
Wind Press
QNH
hPa
Press
MSL
hPa
Rain since
9am
mm
Dir  Spd
km/h
Gust
km/h
Spd
kts
Gust
kts
10/11:30pm 19.5 19.6 15.6 78 2.3 SSW 9 13 5 7 - - 0.0
10/11:00pm 19.8 20.4 15.4 76 2.6 SSE 6 11 3 6 - - 0.0
10/10:30pm 20.0 18.9 15.4 75 2.7 S 15 26 8 14 - - 0.0
10/10:00pm 20.3 19.3 15.7 75 2.7 S 15 24 8 13 - - 0.0
10/09:30pm 20.5 20.0 15.9 75 2.8 SSE 13 22 7 12 - - 0.0
10/09:00pm 20.7 20.3 16.1 75 2.8 S 13 20 7 11 - - 0.0
10/08:30pm 20.9 20.5 16.3 75 2.8 SSE 13 22 7 12 - - 0.0
10/08:00pm 21.3 20.3 16.7 75 2.8 S 17 28 9 15 - - 0.0
10/07:30pm 21.7 20.7 16.6 73 3.1 S 17 26 9 14 - - 0.0
10/07:00pm 22.4 22.3 16.9 71 3.4 S 13 20 7 11 - - 0.0
10/06:30pm 22.9 21.7 16.2 66 4.1 S 17 26 9 14 - - 0.0
10/06:00pm 23.6 22.2 14.6 57 5.4 SSE 15 26 8 14 - - 0.0
10/05:30pm 25.8 25.7 14.9 51 6.6 SSE 9 19 5 10 - - 0.0
10/05:00pm 27.8 29.0 17.3 52 6.6 S 7 13 4 7 - - 0.0
10/04:30pm 27.2 29.4 17.4 55 6.2 ENE 2 7 1 4 - - 0.0
10/04:00pm 26.6 27.9 16.2 52 6.4 NNW 4 11 2 6 - - 0.0
10/03:30pm 25.7 26.8 17.1 59 5.4 N 7 13 4 7 - - 0.0
10/03:00pm 25.1 26.2 18.1 65 4.4 N 9 15 5 8 - - 0.0
10/02:30pm 24.4 26.1 18.1 68 4.0 N 6 9 3 5 - - 0.0
10/02:00pm 23.9 25.6 18.5 72 3.4 N 7 9 4 5 - - 0.0
10/01:30pm 24.4 25.6 17.4 65 4.4 SSW 7 15 4 8 - - 0.0
10/01:00pm 25.2 26.1 16.6 59 5.3 SSW 7 11 4 6 - - 0.0
10/12:30pm 25.3 26.2 16.7 59 5.3 WSW 7 11 4 6 - - 0.0
10/12:00pm 25.0 26.6 17.0 61 5.0 NNW 4 9 2 5 - - 0.0
10/11:30am 24.8 25.1 17.0 62 4.8 NNE 11 17 6 9 - - 0.0
10/11:00am 23.8 25.3 16.6 64 4.4 N 4 7 2 4 - - 0.0
10/10:30am 23.8 24.7 16.6 64 4.4 NNE 7 13 4 7 - - 0.0
10/10:00am 24.2 25.3 16.5 62 4.7 NNE 6 15 3 8 - - 0.0
10/09:30am 24.3 25.9 17.8 67 4.1 ENE 6 13 3 7 - - 0.0
10/09:00am 24.4 25.9 18.1 68 4.0 E 7 13 4 7 - - 0.0
10/08:30am 22.8 24.0 16.8 69 3.7 ESE 6 11 3 6 - - 0.0
10/08:00am 22.3 22.8 17.4 74 3.0 SSE 11 17 6 9 - - 0.0
10/07:30am 21.6 21.8 17.6 78 2.5 S 13 20 7 11 - - 0.0
10/07:00am 21.6 21.5 17.8 79 2.4 SSW 15 24 8 13 - - 0.0
10/06:30am 20.2 20.4 17.6 85 1.6 SSW 13 19 7 10 - - 0.0
10/06:00am 19.8 20.6 17.4 86 1.5 SSW 9 15 5 8 - - 0.0
10/05:30am 19.5 20.1 16.9 85 1.6 S 9 11 5 6 - - 0.0
10/05:00am 20.0 21.1 17.2 84 1.7 SSW 7 11 4 6 - - 0.0
10/04:30am 20.3 21.6 17.1 82 2.0 S 6 9 3 5 - - 0.0
10/04:00am 20.5 21.6 17.1 81 2.1 S 7 11 4 6 - - 0.0
10/03:30am 20.8 21.9 17.2 80 2.2 S 7 9 4 5 - - 0.0
10/03:00am 20.8 22.0 17.4 81 2.1 S 7 11 4 6 - - 0.0
10/02:30am 20.8 22.5 17.2 80 2.2 SE 4 7 2 4 - - 0.0
10/02:00am 20.9 22.1 17.3 80 2.2 SE 7 13 4 7 - - 0.0
10/01:30am 20.9 22.4 17.5 81 2.1 SSE 6 9 3 5 - - 0.0
10/01:00am 21.0 22.3 17.6 81 2.1 S 7 11 4 6 - - 0.0
10/12:30am 21.0 22.5 17.6 81 2.1 SSE 6 9 3 5 - - 0.0
10/12:00am 21.1 22.1 17.7 81 2.1 S 9 13 5 7 - - 0.0
 
Date/Time
EDT
Temp
°C
App
Temp
°C
Dew
Point
°C
Rel
Hum
%
Delta-T
°C
Wind Press
QNH
hPa
Press
MSL
hPa
Rain since
9am
mm
Dir  Spd
km/h
Gust
km/h
Spd
kts
Gust
kts
09/11:30pm 21.0 22.0 17.8 82 2.0 SSE 9 13 5 7 - - 0.0
09/11:00pm 21.0 22.4 17.8 82 2.0 SSE 7 11 4 6 - - 0.0
09/10:30pm 21.1 23.2 18.1 83 1.9 S 4 9 2 5 - - 0.0
09/10:00pm 20.8 23.2 18.0 84 1.7 E 2 11 1 6 - - 0.0
09/09:30pm 20.8 22.7 17.6 82 2.0 E 4 11 2 6 - - 0.0
09/09:00pm 21.3 22.2 17.5 79 2.3 ESE 9 15 5 8 - - 0.0
09/08:30pm 22.0 22.8 17.4 75 2.8 SSE 9 19 5 10 - - 0.0
09/08:00pm 22.4 22.6 15.7 66 4.0 S 9 15 5 8 - - 0.0
09/07:30pm 23.2 23.5 16.0 64 4.4 SSE 9 15 5 8 - - 0.0
09/07:00pm 24.0 24.1 15.5 59 5.1 SSE 9 15 5 8 - - 0.0
09/06:30pm 24.5 23.3 15.1 55 5.7 SSE 15 28 8 15 - - 0.0
09/06:00pm 26.7 25.1 15.1 49 7.0 SSE 17 26 9 14 - - 0.0
09/05:30pm 28.1 25.4 15.7 46 7.6 SSE 24 43 13 23 - - 0.0
09/05:00pm 30.4 28.4 12.8 34 10.5 ESE 15 24 8 13 - - 0.0
09/04:30pm 31.0 30.0 14.6 37 10.0 ENE 13 22 7 12 - - 0.0
09/04:00pm 32.1 31.1 14.7 35 10.7 NE 13 20 7 11 - - 0.0
09/03:30pm 31.2 29.8 14.4 36 10.3 NE 15 22 8 12 - - 0.0
09/03:00pm 32.1 31.4 16.4 39 9.9 NNE 15 24 8 13 - - 0.0
09/02:30pm 31.6 30.9 15.5 37 10.0 NE 13 20 7 11 - - 0.0
09/02:00pm 32.2 32.2 18.0 42 9.2 NE 15 20 8 11 - - 0.0
09/01:30pm 30.8 30.3 16.0 40 9.3 N 13 19 7 10 - - 0.0
09/01:00pm 31.0 31.7 17.0 43 8.9 NE 9 17 5 9 - - 0.0
09/12:30pm 29.5 30.2 17.0 47 7.9 N 9 15 5 8 - - 0.0
09/12:00pm 28.8 29.9 17.0 49 7.4 N 7 17 4 9 - - 0.0
09/11:30am 27.8 28.5 17.0 51 6.8 ENE 9 19 5 10 - - 0.0
09/11:00am 26.6 27.1 17.4 57 5.8 NNE 11 17 6 9 - - 0.0
09/10:30am 25.7 26.3 16.8 58 5.5 N 9 15 5 8 - - 0.0
09/10:00am 25.6 27.1 18.8 66 4.4 NNE 9 13 5 7 - - 0.0
09/09:30am 24.1 25.5 17.8 68 4.0 NE 7 11 4 6 - - 0.0
09/09:00am 22.6 24.0 17.9 75 2.9 SE 7 11 4 6 - - 0.0
09/08:30am 20.4 21.9 17.6 84 1.7 S 6 11 3 6 - - 0.0
09/08:00am 19.0 19.7 17.0 88 1.2 SSW 9 13 5 7 - - 0.0
09/07:30am 18.5 18.7 16.7 89 1.1 SSW 11 15 6 8 - - 0.0
09/07:00am 17.8 18.9 17.2 96 0.4 S 7 9 4 5 - - 0.0
09/06:30am 16.0 17.8 15.4 96 0.4 CALM 0 0 0 0 - - 0.0
09/06:00am 14.8 16.1 14.2 96 0.3 CALM 0 0 0 0 - - 0.0
09/05:30am 15.0 16.3 14.2 95 0.5 CALM 0 0 0 0 - - 0.0
09/05:00am 15.4 17.0 14.8 96 0.3 CALM 0 0 0 0 - - 0.0
09/04:30am 15.3 16.0 14.5 95 0.5 S 4 9 2 5 - - 0.0
09/04:00am 15.8 17.4 15.0 95 0.5 CALM 0 6 0 3 - - 0.0
09/03:30am 15.3 15.5 14.2 93 0.6 SSE 6 7 3 4 - - 0.0
09/03:00am 16.3 18.1 15.5 95 0.5 CALM 0 0 0 0 - - 0.0
09/02:30am 15.7 17.1 14.4 92 0.7 CALM 0 0 0 0 - - 0.0
09/02:00am 16.3 18.0 15.3 94 0.6 CALM 0 0 0 0 - - 0.0
09/01:30am 16.7 18.5 15.6 93 0.6 CALM 0 0 0 0 - - 0.0
09/01:00am 17.0 18.8 15.5 91 0.9 CALM 0 0 0 0 - - 0.0
09/12:30am 17.2 19.0 15.5 90 1.0 CALM 0 0 0 0 - - 0.0
09/12:00am 17.6 19.4 15.6 88 1.2 CALM 0 0 0 0 - - 0.0
 
Date/Time
EDT
Temp
°C
App
Temp
°C
Dew
Point
°C
Rel
Hum
%
Delta-T
°C
Wind Press
QNH
hPa
Press
MSL
hPa
Rain since
9am
mm
Dir  Spd
km/h
Gust
km/h
Spd
kts
Gust
kts
08/11:30pm 18.5 19.3 15.9 85 1.5 SE 6 7 3 4 - - 0.0
08/11:00pm 19.6 20.6 16.3 81 2.0 ESE 6 9 3 5 - - 0.0
08/10:30pm 19.8 20.7 16.1 79 2.2 ENE 6 9 3 5 - - 0.0
08/10:00pm 20.2 20.5 16.0 77 2.5 E 9 13 5 7 - - 0.0
08/09:30pm 20.7 20.6 15.9 74 2.9 E 11 17 6 9 - - 0.0
08/09:00pm 21.0 21.8 15.8 72 3.1 E 6 9 3 5 - - 0.0
08/08:30pm 21.5 22.0 15.6 69 3.5 ENE 7 13 4 7 - - 0.0

Latest Capital City Observations: Canberra | Sydney | Melbourne | Brisbane | Adelaide | Perth | Hobart | Darwin

Other Formats:

Comma delimited format used in spreadsheet applications
http://www.bom.gov.au/fwo/IDN60901/IDN60901.94757.axf

JavaScript Object Notation format (JSON) in row-major order
http://www.bom.gov.au/fwo/IDN60901/IDN60901.94757.json